Andrews, SC

5:06 AM EST on February 14, 2016 (GMT -0500)
APRSWXNET | | Change Station
CLOSE
Current Station
Personal Weather Station
Location: Georgetown, SC
Elevation: 19 ft
Nearby Weather Stations
Active Advisory: Flood Warning

Elev 19 ft 33.38 °N, 79.42 °W | Updated 39 minutes ago

Clear
Clear
26 °F
Feels Like 26 °F
N
0
Wind Variable Wind from ENE
Gusts 0.0 mph

Today
High -- | Low -- °F
--% Chance of Precip.
Yesterday
High -- | Low -- °F
Precip. -- in
Pressure 30.45 in
Visibility 10.0 miles
Clouds Clear
Windchill 26 °F
Dew Point 13 °F
Humidity 58%
Rainfall in
Snow Depth Not available.
7:03 AM 6:01 PM
Waxing Crescent, 40% visible
METAR KGGE 140955Z AUTO 03007KT 10SM CLR M02/M14 A3045 RMK AO2
Pressure 30.45 in
Visibility 10.0 miles
Clouds Clear
Windchill 26 °F
Dew Point 13 °F
Humidity 58%
Rainfall in
Snow Depth Not available.
7:03 AM 6:01 PM
Waxing Crescent, 40% visible
METAR KGGE 140955Z AUTO 03007KT 10SM CLR M02/M14 A3045 RMK AO2

10-Day Weather Forecast

Almanac

Astronomy

Feb. 14, 2016 Rise Set
Actual Time
Civil Twilight
Nautical Twilight
Astronomical Twilight
Moon
Length of Visible Light
Length of Day
Tomorrow will be .
, % of the Moon is Illuminated

Today's Extremes

State Highs State Lows

Community

WunderPhotos

Upload Photos

1,892,761 photos uploaded!

WunderBlog® & News

Nearby

Air Quality

  Air Quality AQ Index Pollutant
Not available.

Snow Depth

Station Depth Elevation

Earthquake Activity

City Distance Mag. Time & Date
Minimum magnitude displayed is 2.5.

Coastal Water Temperatures

Place Temperature

Stations

Nearby Weather Stations

Station Location Temp. Windchill Dew Point Humidity Wind Precip. Elev Updated Type
                   

Watches & Warnings

Flood Warning
Issued: 10:05 PM EST Feb. 13, 2016 – National Weather Service

The Flood Warning continues for
the Santee river near Jamestown.
* At 9 PM Saturday the stage was 13.4 feet.
* Flood stage is 10.0 feet.
* Minor flooding is occurring.
* Forecast, the river will remain nearly steady or slowly fall.
* At 12.0 feet, several dirt logging roads are impassable.


Lat... Lon 3347 8002 3354 7998 3325 7937 3321 7938
          3320 7951 3329 7976